Terminal Aerodrome Forecast
Issued by NWS Wichita, KS

Home | Current Version | Previous Version | Text Only | Print | Product List | Glossary On
Versions: 1 2 3 4 5 6 7 8 9 10 11 12 13 14 15 16 17 18 19
000
FTUS43 KICT 251745
TAFICT
TAF
KICT 251745Z 2518/2618 18026G35KT P6SM SCT250
     FM260100 18016KT P6SM SCT250
     FM260700 20008KT P6SM SCT250
     FM261200 01010KT P6SM SCT009
     FM261500 01010KT P6SM SCT009 BKN015=

USA.gov is the U.S. government's official web portal to all federal, state and local government web resources and services.